FNUG

Uige Airport

Uige, Angola
METAR FNUG 171600Z 15006KT 9999 TS SCT020 FEW023CB BKN070 22/20 Q1011
Observed Flight Rules
Dec-17 @ 16:00 UTC (5 hours ago) Visual Flight Rules
Wind Visibility Clouds Conditions
150° at 6 knots 10,000+ meters
  • Scattered at 2,000' AGL
  • Few at 2,300' AGL
  • Broken at 7,000' AGL
  • Thunderstorm
Temperatures Readings
Current 22°C / 72°F
Dewpoint 20°C / 68°F
Humidity 88%
Altimeter 29.85" Hg
Pressure 1011 hPa
Elevation 829
METAR FNUG 171600Z 15006KT 9999 TS SCT020 FEW023CB BKN070 22/20 Q1011
Observed Flight Rules
Dec-17 @ 16:00 UTC
(5 hours ago)
VFR
Wind Visibility
150° at 6 knots 10,000+ meters
Clouds
  • Scattered at 2,000' AGL
  • Few at 2,300' AGL
  • Broken at 7,000' AGL
Conditions
  • Thunderstorm
Temperature Dewpoint
22°C / 72°F 20°C / 68°F
Humidity Altimeter Pressure
88% 29.85" Hg 1011 hPa